createdAt,value
2023-05-19T00:00:47.820Z,35.90
2023-05-19T00:01:45.440Z,36.03
2023-05-19T00:02:45.501Z,34.65
2023-05-19T00:03:45.440Z,35.33
2023-05-19T00:04:45.423Z,37.94
2023-05-19T00:05:45.471Z,36.91
2023-05-19T00:06:45.384Z,34.57
2023-05-19T00:07:45.395Z,37.30
2023-05-19T00:08:45.382Z,37.28
2023-05-19T00:09:45.383Z,35.73
2023-05-19T00:10:45.388Z,36.94
2023-05-19T00:11:45.371Z,36.72
2023-05-19T00:12:45.358Z,38.84
2023-05-19T00:13:45.401Z,39.54
2023-05-19T00:14:45.351Z,40.34
2023-05-19T00:15:45.368Z,36.31
2023-05-19T00:16:45.338Z,36.97
2023-05-19T00:17:45.378Z,36.11
2023-05-19T00:18:45.372Z,38.33
2023-05-19T00:19:45.371Z,35.77
2023-05-19T00:20:45.307Z,35.25
2023-05-19T00:21:45.452Z,31.88
2023-05-19T00:22:45.325Z,34.98
2023-05-19T00:23:45.296Z,35.22
2023-05-19T00:24:45.311Z,36.33
2023-05-19T00:25:45.279Z,34.94
2023-05-19T00:26:45.302Z,37.32
2023-05-19T00:27:45.281Z,39.21
2023-05-19T00:28:45.258Z,36.61
2023-05-19T00:29:45.286Z,40.31
2023-05-19T00:30:45.282Z,33.76
2023-05-19T00:31:45.300Z,36.17
2023-05-19T00:32:45.288Z,34.29
2023-05-19T00:33:45.245Z,37.12
2023-05-19T00:34:45.256Z,36.80
2023-05-19T00:35:45.258Z,37.89
2023-05-19T00:36:45.238Z,37.44
2023-05-19T00:37:45.248Z,37.05
2023-05-19T00:38:45.240Z,38.44
2023-05-19T00:39:45.204Z,37.14
2023-05-19T00:40:45.239Z,37.14
2023-05-19T00:41:45.191Z,35.00
2023-05-19T00:42:45.199Z,36.03
2023-05-19T00:43:45.164Z,39.15
2023-05-19T00:44:45.182Z,35.35
2023-05-19T00:45:45.158Z,34.13
2023-05-19T00:46:45.188Z,35.74
2023-05-19T00:47:45.211Z,33.30
2023-05-19T00:48:45.142Z,35.82
2023-05-19T00:49:45.197Z,37.24
2023-05-19T00:50:45.207Z,36.25
2023-05-19T00:51:45.306Z,35.86
2023-05-19T00:52:45.339Z,34.96
2023-05-19T00:53:45.374Z,36.08
2023-05-19T00:54:45.432Z,34.33
2023-05-19T00:55:45.493Z,34.61
2023-05-19T00:56:45.505Z,36.35
2023-05-19T00:57:45.576Z,37.96
2023-05-19T00:58:45.614Z,35.40
2023-05-19T00:59:45.666Z,35.88
2023-05-19T01:00:45.791Z,33.87
2023-05-19T01:01:45.778Z,35.20
2023-05-19T01:02:45.857Z,35.81
2023-05-19T01:03:45.991Z,36.42
2023-05-19T01:04:45.928Z,35.66
2023-05-19T01:05:45.963Z,35.94
2023-05-19T01:06:45.984Z,34.93
2023-05-19T01:07:46.052Z,33.08
2023-05-19T01:08:46.091Z,37.57
2023-05-19T01:09:46.145Z,37.06
2023-05-19T01:10:46.190Z,36.28
2023-05-19T01:11:46.249Z,34.72
2023-05-19T01:12:46.311Z,37.08
2023-05-19T01:13:46.351Z,33.92
2023-05-19T01:14:46.400Z,31.96
2023-05-19T01:15:46.974Z,34.59
2023-05-19T01:16:46.579Z,37.31
2023-05-19T01:17:46.538Z,36.10
2023-05-19T01:18:46.662Z,36.57
2023-05-19T01:19:46.605Z,35.60
2023-05-19T01:20:46.613Z,33.35
2023-05-19T01:21:46.657Z,36.30
2023-05-19T01:22:46.689Z,34.94
2023-05-19T01:23:46.726Z,33.43
2023-05-19T01:24:46.778Z,35.17
2023-05-19T01:25:46.795Z,36.22
2023-05-19T01:26:46.799Z,37.56
2023-05-19T01:27:46.809Z,37.60
2023-05-19T01:28:46.852Z,36.72
2023-05-19T01:29:46.924Z,35.37
2023-05-19T01:30:46.977Z,35.32
2023-05-19T01:31:47.043Z,34.20
2023-05-19T01:32:47.048Z,37.33
2023-05-19T01:33:47.093Z,37.90
2023-05-19T01:34:47.124Z,36.33
2023-05-19T01:35:47.149Z,35.24
2023-05-19T01:36:47.207Z,37.95
2023-05-19T01:37:47.265Z,35.05
2023-05-19T01:38:47.297Z,37.10
2023-05-19T01:39:47.336Z,37.31
2023-05-19T01:40:47.376Z,40.64
2023-05-19T01:41:47.456Z,37.51
2023-05-19T01:42:47.476Z,37.33
2023-05-19T01:43:47.518Z,34.65
2023-05-19T01:44:47.589Z,37.08
2023-05-19T01:45:47.698Z,35.67
2023-05-19T01:46:47.711Z,38.45
2023-05-19T01:47:47.768Z,40.85
2023-05-19T01:48:47.769Z,39.91
2023-05-19T01:49:47.786Z,35.09
2023-05-19T01:50:47.858Z,38.23
2023-05-19T01:51:47.912Z,38.22
2023-05-19T01:52:47.962Z,37.02
2023-05-19T01:53:47.975Z,37.62
2023-05-19T01:54:48.036Z,39.69
2023-05-19T01:55:48.142Z,36.31
2023-05-19T01:56:48.498Z,37.40
2023-05-19T01:57:48.194Z,39.87
2023-05-19T01:58:48.289Z,37.72
2023-05-19T01:59:48.283Z,36.41
2023-05-19T02:00:48.340Z,33.98
2023-05-19T02:01:48.551Z,35.60
2023-05-19T02:02:48.498Z,33.13
2023-05-19T02:03:48.501Z,36.31
2023-05-19T02:04:48.591Z,33.00
2023-05-19T02:05:48.602Z,34.35
2023-05-19T02:06:48.661Z,38.12
2023-05-19T02:07:48.703Z,31.12
2023-05-19T02:08:48.783Z,35.35
2023-05-19T02:09:48.806Z,36.68
2023-05-19T02:10:48.858Z,36.30
2023-05-19T02:11:48.899Z,33.34
2023-05-19T02:12:48.942Z,35.19
2023-05-19T02:13:48.991Z,34.46
2023-05-19T02:14:49.073Z,36.90
2023-05-19T02:15:49.148Z,36.55
2023-05-19T02:16:49.181Z,36.84
2023-05-19T02:17:49.212Z,34.37
2023-05-19T02:18:49.286Z,33.25
2023-05-19T02:19:49.309Z,35.76
2023-05-19T02:20:49.371Z,36.72
2023-05-19T02:21:49.408Z,33.32
2023-05-19T02:22:49.443Z,37.04
2023-05-19T02:23:49.513Z,37.55
2023-05-19T02:24:49.574Z,35.32
2023-05-19T02:25:49.602Z,34.23
2023-05-19T02:26:49.654Z,40.01
2023-05-19T02:27:49.729Z,35.06
2023-05-19T02:28:49.760Z,36.08
2023-05-19T02:29:49.809Z,36.74
2023-05-19T02:30:49.893Z,32.96
2023-05-19T02:31:49.974Z,34.89
2023-05-19T02:32:50.004Z,33.01
2023-05-19T02:33:50.017Z,34.64
2023-05-19T02:34:50.047Z,38.78
2023-05-19T02:35:50.086Z,35.37
2023-05-19T02:36:50.168Z,34.73
2023-05-19T02:37:50.233Z,32.88
2023-05-19T02:38:50.245Z,32.75
2023-05-19T02:39:50.326Z,32.39
2023-05-19T02:40:50.372Z,33.31
2023-05-19T02:41:50.414Z,34.09
2023-05-19T02:42:50.494Z,33.26
2023-05-19T02:43:50.546Z,36.14
2023-05-19T02:44:50.613Z,34.94
2023-05-19T02:45:50.644Z,36.17
2023-05-19T02:46:50.776Z,37.45
2023-05-19T02:47:50.783Z,35.05
2023-05-19T02:48:50.816Z,35.18
2023-05-19T02:49:50.852Z,36.54
2023-05-19T02:50:50.972Z,38.20
2023-05-19T02:51:51.010Z,34.53
2023-05-19T02:52:51.019Z,32.37
2023-05-19T02:53:51.099Z,34.96
2023-05-19T02:54:51.148Z,34.96
2023-05-19T02:55:51.182Z,36.98
2023-05-19T02:56:51.246Z,38.12
2023-05-19T02:57:51.279Z,35.86
2023-05-19T02:58:51.382Z,36.73
2023-05-19T02:59:51.397Z,36.17
2023-05-19T03:00:51.474Z,39.35
2023-05-19T03:01:51.557Z,38.12
2023-05-19T03:02:51.653Z,39.33
2023-05-19T03:03:51.656Z,38.10
2023-05-19T03:04:51.653Z,38.90
2023-05-19T03:05:51.700Z,35.81
2023-05-19T03:06:51.762Z,36.38
2023-05-19T03:07:51.828Z,39.51
2023-05-19T03:08:51.882Z,37.86
2023-05-19T03:09:51.887Z,38.24
2023-05-19T03:10:51.948Z,34.77
2023-05-19T03:11:52.024Z,36.48
2023-05-19T03:12:52.037Z,34.57
2023-05-19T03:13:52.160Z,34.92
2023-05-19T03:14:52.167Z,35.35
2023-05-19T03:15:52.278Z,38.40
2023-05-19T03:16:52.421Z,37.36
2023-05-19T03:17:52.410Z,35.61
2023-05-19T03:18:52.482Z,36.33
2023-05-19T03:19:52.451Z,33.52
2023-05-19T03:20:52.515Z,34.95
2023-05-19T03:21:52.564Z,34.20
2023-05-19T03:22:52.613Z,35.68
2023-05-19T03:23:52.668Z,35.11
2023-05-19T03:24:52.742Z,34.89
2023-05-19T03:25:52.771Z,39.76
2023-05-19T03:26:52.846Z,35.22
2023-05-19T03:27:52.896Z,34.04
2023-05-19T03:28:52.933Z,34.89
2023-05-19T03:29:52.993Z,35.02
2023-05-19T03:30:53.043Z,36.31
2023-05-19T03:31:53.118Z,34.78
2023-05-19T03:32:53.243Z,38.00
2023-05-19T03:33:53.204Z,37.19
2023-05-19T03:34:53.271Z,37.04
2023-05-19T03:35:53.331Z,39.81
2023-05-19T03:36:53.356Z,38.91
2023-05-19T03:37:53.472Z,35.02
2023-05-19T03:38:53.474Z,35.37
2023-05-19T03:39:53.521Z,37.84
2023-05-19T03:40:53.546Z,33.79
2023-05-19T03:41:53.613Z,36.77
2023-05-19T03:42:53.646Z,35.05
2023-05-19T03:43:53.689Z,33.80
2023-05-19T03:44:53.761Z,32.27
2023-05-19T03:45:53.848Z,32.35
2023-05-19T03:46:53.882Z,35.00
2023-05-19T03:47:53.976Z,35.73
2023-05-19T03:48:53.955Z,35.40
2023-05-19T03:49:54.017Z,32.88
2023-05-19T03:50:54.089Z,35.71
2023-05-19T03:51:54.152Z,35.01
2023-05-19T03:52:54.216Z,33.52
2023-05-19T03:53:54.277Z,35.85
2023-05-19T03:54:54.290Z,35.32
2023-05-19T03:55:54.400Z,39.83
2023-05-19T03:56:54.418Z,38.82
2023-05-19T03:57:54.487Z,34.03
2023-05-19T03:58:54.577Z,38.14
2023-05-19T03:59:54.605Z,33.80
2023-05-19T04:00:54.651Z,37.59
2023-05-19T04:01:54.754Z,34.82
2023-05-19T04:02:54.910Z,36.63
2023-05-19T04:03:54.883Z,36.10
2023-05-19T04:04:54.985Z,33.19
2023-05-19T04:05:54.922Z,36.27
2023-05-19T04:06:55.003Z,34.46
2023-05-19T04:07:55.035Z,35.62
2023-05-19T04:08:55.092Z,35.05
2023-05-19T04:09:55.158Z,33.03
2023-05-19T04:10:55.204Z,35.83
2023-05-19T04:11:55.279Z,36.74
2023-05-19T04:12:55.337Z,33.43
2023-05-19T04:13:55.388Z,32.14
2023-05-19T04:14:55.398Z,34.45
2023-05-19T04:15:55.462Z,33.11
2023-05-19T04:16:55.508Z,36.73
2023-05-19T04:17:55.569Z,35.27
2023-05-19T04:18:55.624Z,34.90
2023-05-19T04:19:55.650Z,33.80
2023-05-19T04:20:55.713Z,35.68
2023-05-19T04:21:55.768Z,34.68
2023-05-19T04:22:55.781Z,34.81
2023-05-19T04:23:55.886Z,40.24
2023-05-19T04:24:55.898Z,36.58
2023-05-19T04:25:55.996Z,36.25
2023-05-19T04:26:56.037Z,34.24
2023-05-19T04:27:56.056Z,31.69
2023-05-19T04:28:56.111Z,33.62
2023-05-19T04:29:56.185Z,36.31
2023-05-19T04:30:56.287Z,35.56
2023-05-19T04:31:56.547Z,37.74
2023-05-19T04:32:56.362Z,35.99
2023-05-19T04:33:56.393Z,34.97
2023-05-19T04:34:56.414Z,37.73
2023-05-19T04:35:56.470Z,36.20
2023-05-19T04:36:56.547Z,34.89
2023-05-19T04:37:56.558Z,33.79
2023-05-19T04:38:56.640Z,35.06
2023-05-19T04:39:56.653Z,36.42
2023-05-19T04:40:56.716Z,34.38
2023-05-19T04:41:56.792Z,37.98
2023-05-19T04:42:56.823Z,36.10
2023-05-19T04:43:56.879Z,39.43
2023-05-19T04:44:56.906Z,33.71
2023-05-19T04:45:56.988Z,34.19
2023-05-19T04:46:57.047Z,36.59
2023-05-19T04:47:57.083Z,37.65
2023-05-19T04:48:57.142Z,35.59
2023-05-19T04:49:57.189Z,35.88
2023-05-19T04:50:57.239Z,34.81
2023-05-19T04:51:57.272Z,36.76
2023-05-19T04:52:57.325Z,38.09
2023-05-19T04:53:57.345Z,37.49
2023-05-19T04:54:57.386Z,36.04
2023-05-19T04:55:57.427Z,36.53
2023-05-19T04:56:57.511Z,36.83
2023-05-19T04:57:57.556Z,38.58
2023-05-19T04:58:57.601Z,35.50
2023-05-19T04:59:57.623Z,36.56
2023-05-19T05:00:57.708Z,35.93
2023-05-19T05:01:57.805Z,37.50
2023-05-19T05:02:57.980Z,38.02
2023-05-19T05:03:57.903Z,38.14
2023-05-19T05:04:57.903Z,40.40
2023-05-19T05:05:57.920Z,41.67
2023-05-19T05:06:57.975Z,39.33
2023-05-19T05:07:58.020Z,39.66
2023-05-19T05:08:58.067Z,36.78
2023-05-19T05:09:58.140Z,35.37
2023-05-19T05:10:58.160Z,36.38
2023-05-19T05:11:58.177Z,38.22
2023-05-19T05:12:58.269Z,38.78
2023-05-19T05:13:58.516Z,40.20
2023-05-19T05:14:58.345Z,38.36
2023-05-19T05:15:58.424Z,33.71
2023-05-19T05:16:58.428Z,38.13
2023-05-19T05:17:58.692Z,36.38
2023-05-19T05:18:58.608Z,38.27
2023-05-19T05:19:58.585Z,38.63
2023-05-19T05:20:58.624Z,38.81
2023-05-19T05:21:58.655Z,34.71
2023-05-19T05:22:58.747Z,36.22
2023-05-19T05:23:58.780Z,37.15
2023-05-19T05:24:58.823Z,34.80
2023-05-19T05:25:58.884Z,37.14
2023-05-19T05:26:58.977Z,36.78
2023-05-19T05:27:58.976Z,36.57
2023-05-19T05:28:59.039Z,36.32
2023-05-19T05:29:59.436Z,38.02
2023-05-19T05:30:59.150Z,39.65
2023-05-19T05:31:59.227Z,40.54
2023-05-19T05:32:59.318Z,38.33
2023-05-19T05:33:59.285Z,37.13
2023-05-19T05:34:59.342Z,36.95
2023-05-19T05:35:59.383Z,35.74
2023-05-19T05:36:59.425Z,34.30
2023-05-19T05:37:59.495Z,38.86
2023-05-19T05:38:59.539Z,37.11
2023-05-19T05:39:59.608Z,37.52
2023-05-19T05:40:59.638Z,35.39
2023-05-19T05:41:59.688Z,38.12
2023-05-19T05:42:59.722Z,38.71
2023-05-19T05:43:59.819Z,38.24
2023-05-19T05:44:59.856Z,35.85
2023-05-19T05:45:59.973Z,36.51
2023-05-19T05:46:59.969Z,35.72
2023-05-19T05:48:00.075Z,38.44
2023-05-19T05:49:00.046Z,34.04
2023-05-19T05:50:00.190Z,38.81
2023-05-19T05:51:00.181Z,35.92
2023-05-19T05:53:00.222Z,32.26
2023-05-19T05:54:00.177Z,34.33
2023-05-19T05:55:00.196Z,36.96
2023-05-19T05:56:00.338Z,38.34
2023-05-19T05:57:00.562Z,36.84
2023-05-19T05:58:00.179Z,34.06
2023-05-19T05:59:00.234Z,37.23
2023-05-19T06:00:00.146Z,37.25
2023-05-19T06:01:00.191Z,33.75
2023-05-19T06:02:00.209Z,34.48
2023-05-19T06:03:00.243Z,40.26
2023-05-19T06:04:00.146Z,37.29
2023-05-19T06:05:00.266Z,40.14
2023-05-19T06:06:00.367Z,36.04
2023-05-19T06:07:00.128Z,37.58
2023-05-19T06:08:00.192Z,36.11
2023-05-19T06:09:00.172Z,34.97
2023-05-19T06:10:00.136Z,38.12
2023-05-19T06:11:00.086Z,36.71
2023-05-19T06:12:00.560Z,40.49
2023-05-19T06:13:00.188Z,36.82
2023-05-19T06:14:00.100Z,35.33
2023-05-19T06:15:00.075Z,37.80
2023-05-19T06:16:02.041Z,33.85
2023-05-19T06:17:00.044Z,38.03
2023-05-19T06:18:00.132Z,35.24
2023-05-19T06:19:00.035Z,36.53
2023-05-19T06:20:00.045Z,32.94
2023-05-19T06:21:00.065Z,37.19
2023-05-19T06:22:00.106Z,38.36
2023-05-19T06:23:00.146Z,37.90
2023-05-19T06:24:00.143Z,36.83
2023-05-19T06:25:00.222Z,35.49
2023-05-19T06:26:00.265Z,35.95
2023-05-19T06:27:00.348Z,37.91
2023-05-19T06:28:00.367Z,33.00
2023-05-19T06:29:00.415Z,34.05
2023-05-19T06:30:00.456Z,32.78
2023-05-19T06:31:00.531Z,32.87
2023-05-19T06:32:00.580Z,33.96
2023-05-19T06:33:00.656Z,33.35
2023-05-19T06:34:00.659Z,31.85
2023-05-19T06:35:00.699Z,34.09
2023-05-19T06:36:00.719Z,33.18
2023-05-19T06:37:00.810Z,32.28
2023-05-19T06:38:00.841Z,32.41
2023-05-19T06:39:02.601Z,29.72
2023-05-19T06:40:00.934Z,30.55
2023-05-19T06:41:00.955Z,33.42
2023-05-19T06:42:01.084Z,33.08
2023-05-19T06:43:01.119Z,33.74
2023-05-19T06:44:01.086Z,33.00
2023-05-19T06:45:01.163Z,34.58
2023-05-19T06:46:01.172Z,31.77
2023-05-19T06:47:01.619Z,32.72
2023-05-19T06:48:01.346Z,33.51
2023-05-19T06:49:01.356Z,36.13
2023-05-19T06:50:01.416Z,36.47
2023-05-19T06:51:01.475Z,35.12
2023-05-19T06:52:01.453Z,36.50
2023-05-19T06:53:01.516Z,35.36
2023-05-19T06:54:01.540Z,36.24
2023-05-19T06:55:01.603Z,32.88
2023-05-19T06:56:01.652Z,31.98
2023-05-19T06:57:01.701Z,37.22
2023-05-19T06:58:01.714Z,33.67
2023-05-19T06:59:01.782Z,33.54
2023-05-19T07:00:01.843Z,35.81
2023-05-19T07:01:01.847Z,32.06
2023-05-19T07:02:02.074Z,38.00
2023-05-19T07:03:02.167Z,33.28
2023-05-19T07:04:02.136Z,36.07
2023-05-19T07:05:02.049Z,34.87
2023-05-19T07:06:02.048Z,38.81
2023-05-19T07:07:02.578Z,36.40
2023-05-19T07:08:02.189Z,34.60
2023-05-19T07:09:02.216Z,39.74
2023-05-19T07:10:02.271Z,35.31
2023-05-19T07:11:02.334Z,37.91
2023-05-19T07:12:02.597Z,34.46
2023-05-19T07:13:02.390Z,34.97
2023-05-19T07:14:02.473Z,34.50
2023-05-19T07:15:02.485Z,33.78
2023-05-19T07:16:02.584Z,37.75
2023-05-19T07:17:02.557Z,34.36
2023-05-19T07:18:02.696Z,36.67
2023-05-19T07:19:02.728Z,35.69
2023-05-19T07:20:02.719Z,37.16
2023-05-19T07:21:02.780Z,37.04
2023-05-19T07:22:03.078Z,37.84
2023-05-19T07:23:02.871Z,34.00
2023-05-19T07:24:02.934Z,37.37
2023-05-19T07:25:02.966Z,36.36
2023-05-19T07:26:02.985Z,34.53
2023-05-19T07:27:03.051Z,31.75
2023-05-19T07:28:03.065Z,31.65
2023-05-19T07:29:03.112Z,34.38
2023-05-19T07:30:03.163Z,32.52
2023-05-19T07:31:03.200Z,34.14
2023-05-19T07:32:03.378Z,32.94
2023-05-19T07:33:03.321Z,32.53
2023-05-19T07:34:03.384Z,30.92
2023-05-19T07:35:03.392Z,32.97
2023-05-19T07:36:03.447Z,33.34
2023-05-19T07:37:03.626Z,33.60
2023-05-19T07:38:03.541Z,34.22
2023-05-19T07:39:03.652Z,32.29
2023-05-19T07:40:03.637Z,34.47
2023-05-19T07:41:03.652Z,33.95
2023-05-19T07:42:03.713Z,33.39
2023-05-19T07:43:03.797Z,36.08
2023-05-19T07:44:03.825Z,33.24
2023-05-19T07:45:03.875Z,31.02
2023-05-19T07:46:04.019Z,35.22
2023-05-19T07:47:04.073Z,33.42
2023-05-19T07:48:04.110Z,34.24
2023-05-19T07:49:04.031Z,36.65
2023-05-19T07:50:04.136Z,32.27
2023-05-19T07:51:04.167Z,33.27
2023-05-19T07:52:04.204Z,35.86
2023-05-19T07:53:04.257Z,38.36
2023-05-19T07:54:04.279Z,34.81
2023-05-19T07:55:04.292Z,35.36
2023-05-19T07:56:04.351Z,35.98
2023-05-19T07:57:04.607Z,35.73
2023-05-19T07:58:04.452Z,36.87
2023-05-19T07:59:04.535Z,37.70
2023-05-19T08:00:04.569Z,35.73
2023-05-19T08:01:04.567Z,39.37
2023-05-19T08:02:05.099Z,34.76
2023-05-19T08:03:04.724Z,35.85
2023-05-19T08:04:04.758Z,34.08
2023-05-19T08:05:04.779Z,31.21
2023-05-19T08:06:04.809Z,35.41
2023-05-19T08:07:04.834Z,33.85
2023-05-19T08:08:04.877Z,32.23
2023-05-19T08:09:04.917Z,33.86
2023-05-19T08:10:05.012Z,33.29
2023-05-19T08:11:05.033Z,34.75
2023-05-19T08:12:05.076Z,31.87
2023-05-19T08:13:05.112Z,33.91
2023-05-19T08:14:05.173Z,36.89
2023-05-19T08:15:05.187Z,33.70
2023-05-19T08:16:05.347Z,32.63
2023-05-19T08:17:05.577Z,30.25
2023-05-19T08:18:05.461Z,33.39
2023-05-19T08:19:05.464Z,29.64
2023-05-19T08:20:05.418Z,30.75
2023-05-19T08:21:05.467Z,31.19
2023-05-19T08:22:05.509Z,30.73
2023-05-19T08:23:05.546Z,30.21
2023-05-19T08:24:05.594Z,29.59
2023-05-19T08:25:05.626Z,31.87
2023-05-19T08:26:05.753Z,32.84
2023-05-19T08:27:05.717Z,29.03
2023-05-19T08:28:05.747Z,31.26
2023-05-19T08:29:05.798Z,32.09
2023-05-19T08:30:05.817Z,30.62
2023-05-19T08:31:05.947Z,32.69
2023-05-19T08:32:05.912Z,32.23
2023-05-19T08:33:05.988Z,30.67
2023-05-19T08:34:06.003Z,34.33
2023-05-19T08:35:06.040Z,32.27
2023-05-19T08:36:06.178Z,36.25
2023-05-19T08:37:06.155Z,34.30
2023-05-19T08:38:06.228Z,32.18
2023-05-19T08:39:06.252Z,34.44
2023-05-19T08:40:06.228Z,31.51
2023-05-19T08:41:06.282Z,31.44
2023-05-19T08:42:06.643Z,35.39
2023-05-19T08:43:06.325Z,33.69
2023-05-19T08:44:06.359Z,34.13
2023-05-19T08:45:06.413Z,33.76
2023-05-19T08:46:06.450Z,33.42
2023-05-19T08:47:06.700Z,32.29
2023-05-19T08:48:06.510Z,32.67
2023-05-19T08:49:06.547Z,35.97
2023-05-19T08:50:06.599Z,35.78
2023-05-19T08:51:06.585Z,38.30
2023-05-19T08:52:07.101Z,34.03
2023-05-19T08:53:09.404Z,38.17
2023-05-19T08:54:07.655Z,38.42
2023-05-19T08:55:06.685Z,37.45
2023-05-19T08:56:06.643Z,36.20
2023-05-19T08:57:06.618Z,38.65
2023-05-19T08:58:06.610Z,36.85
2023-05-19T08:59:06.621Z,36.89
2023-05-19T09:00:06.592Z,36.81
2023-05-19T09:01:06.671Z,38.35
2023-05-19T09:02:06.597Z,36.61
2023-05-19T09:04:06.684Z,37.27
2023-05-19T09:05:06.645Z,37.75
2023-05-19T09:06:06.578Z,37.62
2023-05-19T09:07:06.588Z,35.75
2023-05-19T09:08:06.574Z,35.67
2023-05-19T09:09:06.563Z,36.44
2023-05-19T09:10:06.536Z,36.56
2023-05-19T09:11:06.537Z,37.66
2023-05-19T09:12:06.563Z,35.73
2023-05-19T09:13:06.526Z,35.33
2023-05-19T09:14:06.634Z,38.49
2023-05-19T09:15:06.525Z,34.53
2023-05-19T09:16:06.556Z,35.29
2023-05-19T09:17:06.596Z,35.44
2023-05-19T09:18:06.613Z,35.69
2023-05-19T09:19:06.598Z,35.92
2023-05-19T09:20:06.677Z,31.74
2023-05-19T09:21:06.619Z,33.72
2023-05-19T09:22:06.727Z,31.32
2023-05-19T09:23:06.642Z,34.24
2023-05-19T09:24:06.736Z,35.98
2023-05-19T09:25:06.777Z,33.31
2023-05-19T09:26:06.782Z,34.38
2023-05-19T09:27:06.786Z,34.74
2023-05-19T09:28:06.807Z,33.82
2023-05-19T09:29:06.853Z,33.87
2023-05-19T09:30:06.896Z,35.33
2023-05-19T09:31:06.956Z,33.43
2023-05-19T09:32:07.182Z,36.88
2023-05-19T09:33:07.037Z,35.93
2023-05-19T09:34:07.045Z,37.18
2023-05-19T09:35:07.099Z,35.98
2023-05-19T09:36:07.182Z,36.74
2023-05-19T09:37:07.163Z,32.01
2023-05-19T09:38:07.203Z,34.68
2023-05-19T09:39:07.204Z,35.15
2023-05-19T09:40:07.255Z,38.24
2023-05-19T09:41:07.283Z,37.52
2023-05-19T09:42:07.343Z,36.01
2023-05-19T09:43:07.368Z,34.28
2023-05-19T09:44:07.381Z,35.32
2023-05-19T09:45:07.401Z,36.23
2023-05-19T09:46:07.744Z,36.59
2023-05-19T09:47:07.510Z,38.19
2023-05-19T09:48:07.592Z,36.36
2023-05-19T09:49:07.552Z,34.28
2023-05-19T09:50:07.596Z,35.21
2023-05-19T09:51:07.591Z,37.18
2023-05-19T09:52:07.641Z,35.94
2023-05-19T09:53:07.699Z,37.14
2023-05-19T09:54:07.673Z,37.39
2023-05-19T09:55:07.724Z,34.37
2023-05-19T09:56:07.760Z,32.36
2023-05-19T09:57:08.811Z,37.28
2023-05-19T09:58:07.846Z,37.75
2023-05-19T09:59:07.856Z,37.26
2023-05-19T10:00:07.900Z,38.48
2023-05-19T10:01:07.921Z,36.27
2023-05-19T10:02:07.950Z,38.62
2023-05-19T10:03:08.028Z,37.77
2023-05-19T10:04:07.992Z,37.76
2023-05-19T10:05:08.092Z,35.51
2023-05-19T10:06:08.034Z,39.92
2023-05-19T10:07:08.064Z,38.16
2023-05-19T10:08:08.129Z,37.72
2023-05-19T10:09:08.119Z,37.51
2023-05-19T10:10:08.166Z,37.18
2023-05-19T10:11:08.173Z,39.28
2023-05-19T10:12:08.207Z,38.77
2023-05-19T10:13:08.227Z,36.18
2023-05-19T10:14:08.292Z,37.62
2023-05-19T10:15:08.286Z,39.23
2023-05-19T10:16:08.422Z,36.97
2023-05-19T10:17:08.399Z,35.35
2023-05-19T10:18:08.527Z,36.21
2023-05-19T10:19:08.479Z,34.98
2023-05-19T10:20:08.469Z,36.48
2023-05-19T10:21:08.482Z,38.79
2023-05-19T10:22:08.530Z,38.30
2023-05-19T10:23:08.539Z,38.01
2023-05-19T10:24:08.546Z,35.40
2023-05-19T10:25:08.579Z,41.94
2023-05-19T10:26:08.672Z,41.64
2023-05-19T10:27:08.661Z,41.51
2023-05-19T10:28:08.680Z,40.52
2023-05-19T10:29:08.725Z,38.89
2023-05-19T10:30:10.085Z,38.38
2023-05-19T10:31:08.720Z,42.18
2023-05-19T10:32:09.180Z,39.10
2023-05-19T10:33:08.749Z,40.95
2023-05-19T10:34:08.730Z,41.47
2023-05-19T10:35:08.713Z,41.51
2023-05-19T10:36:08.728Z,41.04
2023-05-19T10:37:08.706Z,39.18
2023-05-19T10:38:08.696Z,39.18
2023-05-19T10:39:08.687Z,39.26
2023-05-19T10:40:08.680Z,41.22
2023-05-19T10:41:08.707Z,43.69
2023-05-19T10:42:08.655Z,41.28
2023-05-19T10:43:08.677Z,41.28
2023-05-19T10:44:08.649Z,41.14
2023-05-19T10:45:08.668Z,41.18
2023-05-19T10:46:08.639Z,41.20
2023-05-19T10:47:08.750Z,44.28
2023-05-19T10:48:08.673Z,42.29
2023-05-19T10:49:08.624Z,41.81
2023-05-19T10:50:08.654Z,42.73
2023-05-19T10:51:08.654Z,42.87
2023-05-19T10:52:08.614Z,42.87
2023-05-19T10:53:08.643Z,44.18
2023-05-19T10:54:08.604Z,44.61
2023-05-19T10:55:08.618Z,41.76
2023-05-19T10:56:08.600Z,45.75
2023-05-19T10:57:08.644Z,43.65
2023-05-19T10:58:08.583Z,38.99
2023-05-19T10:59:08.551Z,46.87
2023-05-19T11:00:08.574Z,46.72
2023-05-19T11:01:08.542Z,43.88
2023-05-19T11:02:08.742Z,44.62
2023-05-19T11:03:08.590Z,43.95
2023-05-19T11:04:08.588Z,44.24
2023-05-19T11:05:08.532Z,48.47
2023-05-19T11:06:08.540Z,45.69
2023-05-19T11:07:08.513Z,44.01
2023-05-19T11:08:08.516Z,47.65
2023-05-19T11:09:08.523Z,45.47
2023-05-19T11:10:08.536Z,44.76
2023-05-19T11:11:08.521Z,46.62
2023-05-19T11:12:08.516Z,43.35
2023-05-19T11:13:08.485Z,44.76
2023-05-19T11:14:08.483Z,46.44
2023-05-19T11:15:08.502Z,44.07
2023-05-19T11:16:08.507Z,46.68
2023-05-19T11:17:08.516Z,44.36
2023-05-19T11:18:08.489Z,47.38
2023-05-19T11:19:08.500Z,44.39
2023-05-19T11:20:08.451Z,47.19
2023-05-19T11:21:08.477Z,45.53
2023-05-19T11:22:08.671Z,45.67
2023-05-19T11:23:08.560Z,45.54
2023-05-19T11:24:08.435Z,46.03
2023-05-19T11:25:08.414Z,49.37
2023-05-19T11:26:08.425Z,45.83
2023-05-19T11:27:08.401Z,46.65
2023-05-19T11:28:08.408Z,46.83
2023-05-19T11:29:08.382Z,47.73
2023-05-19T11:30:08.411Z,46.40
2023-05-19T11:31:08.373Z,46.04
2023-05-19T11:32:08.462Z,45.37
2023-05-19T11:33:08.402Z,46.40
2023-05-19T11:34:08.428Z,44.40
2023-05-19T11:35:08.352Z,46.99
2023-05-19T11:36:08.358Z,45.23
2023-05-19T11:37:08.390Z,45.69
2023-05-19T11:38:08.360Z,48.27
2023-05-19T11:39:08.360Z,46.65
2023-05-19T11:40:08.354Z,47.43
2023-05-19T11:41:08.335Z,49.16
2023-05-19T11:42:08.352Z,45.34
2023-05-19T11:43:08.383Z,44.51
2023-05-19T11:44:08.333Z,46.18
2023-05-19T11:45:08.367Z,47.56
2023-05-19T11:46:08.459Z,47.20
2023-05-19T11:47:08.544Z,47.82
2023-05-19T11:48:08.502Z,47.08
2023-05-19T11:49:08.501Z,47.99
2023-05-19T11:50:08.481Z,45.37
2023-05-19T11:51:08.505Z,46.87
2023-05-19T11:52:08.656Z,46.00
2023-05-19T11:53:08.492Z,44.86
2023-05-19T11:54:08.585Z,47.91
2023-05-19T11:55:08.539Z,46.08
2023-05-19T11:56:08.568Z,46.52
2023-05-19T11:57:08.564Z,46.13
2023-05-19T11:58:08.532Z,45.06
2023-05-19T11:59:08.566Z,47.28
2023-05-19T12:00:08.569Z,49.55
2023-05-19T12:01:08.585Z,47.75
2023-05-19T12:02:08.670Z,46.94
2023-05-19T12:03:08.985Z,48.55
2023-05-19T12:04:08.656Z,47.98
2023-05-19T12:05:08.766Z,50.04
2023-05-19T12:06:08.746Z,49.93
2023-05-19T12:07:08.756Z,47.55
2023-05-19T12:08:08.802Z,47.71
2023-05-19T12:09:08.730Z,48.70
2023-05-19T12:10:08.734Z,47.94
2023-05-19T12:11:08.787Z,47.11
2023-05-19T12:12:09.184Z,48.46
2023-05-19T12:13:08.836Z,47.37
2023-05-19T12:14:08.779Z,47.86
2023-05-19T12:15:08.815Z,50.63
2023-05-19T12:16:08.819Z,47.71
2023-05-19T12:17:08.855Z,47.47
2023-05-19T12:18:08.892Z,49.55
2023-05-19T12:19:08.897Z,49.47
2023-05-19T12:20:08.854Z,48.63
2023-05-19T12:21:08.900Z,47.31
2023-05-19T12:22:08.910Z,49.76
2023-05-19T12:23:08.884Z,48.54
2023-05-19T12:24:08.907Z,47.90
2023-05-19T12:25:08.949Z,49.04
2023-05-19T12:26:08.931Z,47.83
2023-05-19T12:27:09.001Z,47.18
2023-05-19T12:28:08.975Z,50.22
2023-05-19T12:29:08.991Z,49.67
2023-05-19T12:30:08.979Z,49.37
2023-05-19T12:31:09.101Z,49.21
2023-05-19T12:32:09.099Z,49.54
2023-05-19T12:33:09.049Z,51.37
2023-05-19T12:34:09.043Z,50.03
2023-05-19T12:35:09.049Z,49.59
2023-05-19T12:36:09.056Z,48.23
2023-05-19T12:37:09.083Z,47.95
2023-05-19T12:38:09.137Z,49.95
2023-05-19T12:39:09.104Z,50.35
2023-05-19T12:40:09.116Z,52.68
2023-05-19T12:41:09.153Z,50.66
2023-05-19T12:42:09.185Z,48.90
2023-05-19T12:43:09.128Z,49.01
2023-05-19T12:44:09.173Z,48.24
2023-05-19T12:45:09.231Z,48.04
2023-05-19T12:46:09.241Z,46.91
2023-05-19T12:47:09.719Z,52.82
2023-05-19T12:48:09.256Z,50.08
2023-05-19T12:49:09.255Z,49.96
2023-05-19T12:50:09.373Z,50.95
2023-05-19T12:51:09.360Z,50.23
2023-05-19T12:52:12.746Z,51.98
2023-05-19T12:53:09.323Z,54.78
2023-05-19T12:54:09.360Z,50.31
2023-05-19T12:55:09.369Z,51.16